Ronnie Rogers — WDD2270 — position and weather

sailwx.info

Track history (hours):
 
Tides and Currents Weather Stations Pressure Air Temp Water Temp Dewpoint Dewpoint Depression Visibility Wind Speed Wind Dir Waves Ship Positions

Ronnie Rogers

Owner: Florida Marine Transporters, Inc., Mandeville, LA. More information available from US FCC via Universal Licensing System and Coast Guard Vessel Documentation Center.

Last reported at 2015-Jan-20 14:14 UTC. Time now 2015-Jan-26 04:26 UTC.
Position N 28°50' W 095°32'.

Length 29 m; draft 3 m.

Type: Towing. MMSI: 367113160.

Date/timePositionNaut miles runAvg speedWind from/ knotsBaromVisibWave heightAir tempDewpointWater temp
2015-Jan-20 14:14N 28°50' W 095°32'29 1.9
2015-Jan-19 23:19N 29°10' W 095°08'3 4.2
2015-Jan-19 22:31N 29°12' W 095°04'6 4.6
2015-Jan-19 21:11N 29°16' W 094°59'3 5.2
2015-Jan-19 20:33N 29°17' W 094°56'6 5.2
2015-Jan-19 19:20N 29°21' W 094°50'4 4.4
2015-Jan-19 18:23N 29°25' W 094°50'5 6.6
2015-Jan-19 17:34N 29°30' W 094°52'6 6.1
2015-Jan-19 16:34N 29°35' W 094°56'6 6.0
2015-Jan-19 15:33N 29°40' W 094°59'6 5.6
2015-Jan-19 14:34N 29°44' W 095°03'3 3.0
2015-Jan-19 13:33N 29°47' W 095°04'2 2.2
2015-Jan-19 12:33N 29°45' W 095°06'0 0.0
2015-Jan-19 11:34N 29°45' W 095°06'2 2.1
2015-Jan-19 10:34N 29°47' W 095°04'0 0.0
2015-Jan-19 09:34N 29°47' W 095°04'3 3.1
2015-Jan-19 08:34N 29°45' W 095°06'4 4.5
2015-Jan-19 07:34N 29°45' W 095°11'1 0.9
2015-Jan-19 06:34N 29°44' W 095°12'0 0.0
2015-Jan-19 05:33N 29°44' W 095°12'0 0.2
2015-Jan-19 04:33N 29°44' W 095°12'0 0.0
2015-Jan-19 03:34N 29°44' W 095°12'0 0.0
2015-Jan-19 02:34N 29°44' W 095°12'0 0.0
2015-Jan-19 01:33N 29°44' W 095°12'0 0.0
2015-Jan-19 00:34N 29°44' W 095°12'0 0.0
2015-Jan-18 23:34N 29°44' W 095°12'0 0.0
2015-Jan-18 22:34N 29°44' W 095°12'0 0.0
2015-Jan-18 21:34N 29°44' W 095°12'0 0.2
2015-Jan-18 20:33N 29°44' W 095°12'0 0.0
2015-Jan-18 19:34N 29°44' W 095°12'5 4.7
2015-Jan-18 18:33N 29°44' W 095°07'4 3.8
2015-Jan-18 17:34N 29°47' W 095°04'0 0.0
2015-Jan-18 16:34N 29°47' W 095°04'0 0.0
2015-Jan-18 15:34N 29°47' W 095°04'0 0.0
2015-Jan-18 14:34N 29°47' W 095°04'0 0.0
2015-Jan-18 13:34N 29°47' W 095°04'3 3.0
2015-Jan-18 12:33N 29°45' W 095°06'4 4.1
2015-Jan-18 11:34N 29°45' W 095°11'2 1.5
2015-Jan-18 10:34N 29°44' W 095°12'0 0.0
2015-Jan-18 09:34N 29°44' W 095°12'0 0.2
2015-Jan-18 08:34N 29°44' W 095°12'0 0.0
2015-Jan-18 07:34N 29°44' W 095°12'0 0.0
2015-Jan-18 06:34N 29°44' W 095°12'0 0.0
2015-Jan-18 05:34N 29°44' W 095°12'0 0.0
2015-Jan-18 04:33N 29°44' W 095°12'0 0.0
2015-Jan-18 03:34N 29°44' W 095°12'0 0.0
2015-Jan-18 02:33N 29°44' W 095°12'0 0.0
2015-Jan-18 01:34N 29°44' W 095°12'0 0.0
2015-Jan-18 00:34N 29°44' W 095°12'0 0.2
2015-Jan-17 23:34N 29°44' W 095°12'0 0.0
2015-Jan-17 22:34N 29°44' W 095°12'0 0.0
2015-Jan-17 21:33N 29°44' W 095°12'0 0.0
2015-Jan-17 20:34N 29°44' W 095°12'0 0.0
2015-Jan-17 19:34N 29°44' W 095°12'1 1.2
2015-Jan-17 18:34N 29°45' W 095°11'5 5.1
2015-Jan-17 17:33N 29°46' W 095°05'2 2.2
2015-Jan-17 16:34N 29°47' W 095°04'0 0.0
2015-Jan-17 15:34N 29°47' W 095°04'2 1.5
2015-Jan-17 14:33N 29°46' W 095°05'1 1.2
2015-Jan-17 13:34N 29°45' W 095°04'5 4.9
2015-Jan-17 12:34N 29°42' W 094°60'6 6.2
2015-Jan-17 11:33N 29°36' W 094°57'7 7.2
2015-Jan-17 10:34N 29°30' W 094°52'13 5.7
2015-Jan-17 08:15N 29°17' W 094°54'5 6.0
2015-Jan-17 07:27N 29°16' W 094°59'6 5.3
2015-Jan-17 06:23N 29°12' W 095°04'  
Track history (hours):
 
Tides and Currents Weather Stations Pressure Air Temp Water Temp Dewpoint Dewpoint Depression Visibility Wind Speed Wind Dir Waves Ship Positions

Ronnie Rogers

Owner: Florida Marine Transporters, Inc., Mandeville, LA. More information available from US FCC via Universal Licensing System and Coast Guard Vessel Documentation Center.

Last reported at 2015-Jan-20 14:14 UTC. Time now 2015-Jan-26 04:26 UTC.
Position N 28°50' W 095°32'.

Length 29 m; draft 3 m.

Type: Towing. MMSI: 367113160.

Date/timePositionNaut miles runAvg speedWind from/ knotsBaromVisibWave heightAir tempDewpointWater temp
2015-Jan-20 14:14N 28°50' W 095°32'29 1.9
2015-Jan-19 23:19N 29°10' W 095°08'3 4.2
2015-Jan-19 22:31N 29°12' W 095°04'6 4.6
2015-Jan-19 21:11N 29°16' W 094°59'3 5.2
2015-Jan-19 20:33N 29°17' W 094°56'6 5.2
2015-Jan-19 19:20N 29°21' W 094°50'4 4.4
2015-Jan-19 18:23N 29°25' W 094°50'5 6.6
2015-Jan-19 17:34N 29°30' W 094°52'6 6.1
2015-Jan-19 16:34N 29°35' W 094°56'6 6.0
2015-Jan-19 15:33N 29°40' W 094°59'6 5.6
2015-Jan-19 14:34N 29°44' W 095°03'3 3.0
2015-Jan-19 13:33N 29°47' W 095°04'2 2.2
2015-Jan-19 12:33N 29°45' W 095°06'0 0.0
2015-Jan-19 11:34N 29°45' W 095°06'2 2.1
2015-Jan-19 10:34N 29°47' W 095°04'0 0.0
2015-Jan-19 09:34N 29°47' W 095°04'3 3.1
2015-Jan-19 08:34N 29°45' W 095°06'4 4.5
2015-Jan-19 07:34N 29°45' W 095°11'1 0.9
2015-Jan-19 06:34N 29°44' W 095°12'0 0.0
2015-Jan-19 05:33N 29°44' W 095°12'0 0.2
2015-Jan-19 04:33N 29°44' W 095°12'0 0.0
2015-Jan-19 03:34N 29°44' W 095°12'0 0.0
2015-Jan-19 02:34N 29°44' W 095°12'0 0.0
2015-Jan-19 01:33N 29°44' W 095°12'0 0.0
2015-Jan-19 00:34N 29°44' W 095°12'0 0.0
2015-Jan-18 23:34N 29°44' W 095°12'0 0.0
2015-Jan-18 22:34N 29°44' W 095°12'0 0.0
2015-Jan-18 21:34N 29°44' W 095°12'0 0.2
2015-Jan-18 20:33N 29°44' W 095°12'0 0.0
2015-Jan-18 19:34N 29°44' W 095°12'5 4.7
2015-Jan-18 18:33N 29°44' W 095°07'4 3.8
2015-Jan-18 17:34N 29°47' W 095°04'0 0.0
2015-Jan-18 16:34N 29°47' W 095°04'0 0.0
2015-Jan-18 15:34N 29°47' W 095°04'0 0.0
2015-Jan-18 14:34N 29°47' W 095°04'0 0.0
2015-Jan-18 13:34N 29°47' W 095°04'3 3.0
2015-Jan-18 12:33N 29°45' W 095°06'4 4.1
2015-Jan-18 11:34N 29°45' W 095°11'2 1.5
2015-Jan-18 10:34N 29°44' W 095°12'0 0.0
2015-Jan-18 09:34N 29°44' W 095°12'0 0.2
2015-Jan-18 08:34N 29°44' W 095°12'0 0.0
2015-Jan-18 07:34N 29°44' W 095°12'0 0.0
2015-Jan-18 06:34N 29°44' W 095°12'0 0.0
2015-Jan-18 05:34N 29°44' W 095°12'0 0.0
2015-Jan-18 04:33N 29°44' W 095°12'0 0.0
2015-Jan-18 03:34N 29°44' W 095°12'0 0.0
2015-Jan-18 02:33N 29°44' W 095°12'0 0.0
2015-Jan-18 01:34N 29°44' W 095°12'0 0.0
2015-Jan-18 00:34N 29°44' W 095°12'0 0.2
2015-Jan-17 23:34N 29°44' W 095°12'0 0.0
2015-Jan-17 22:34N 29°44' W 095°12'0 0.0
2015-Jan-17 21:33N 29°44' W 095°12'0 0.0
2015-Jan-17 20:34N 29°44' W 095°12'0 0.0
2015-Jan-17 19:34N 29°44' W 095°12'1 1.2
2015-Jan-17 18:34N 29°45' W 095°11'5 5.1
2015-Jan-17 17:33N 29°46' W 095°05'2 2.2
2015-Jan-17 16:34N 29°47' W 095°04'0 0.0
2015-Jan-17 15:34N 29°47' W 095°04'2 1.5
2015-Jan-17 14:33N 29°46' W 095°05'1 1.2
2015-Jan-17 13:34N 29°45' W 095°04'5 4.9
2015-Jan-17 12:34N 29°42' W 094°60'6 6.2
2015-Jan-17 11:33N 29°36' W 094°57'7 7.2
2015-Jan-17 10:34N 29°30' W 094°52'13 5.7
2015-Jan-17 08:15N 29°17' W 094°54'5 6.0
2015-Jan-17 07:27N 29°16' W 094°59'6 5.3
2015-Jan-17 06:23N 29°12' W 095°04'  

Dump ship's entire track history